createdAt,value
2023-03-06T00:04:58.738Z,-1.15
2023-03-06T00:10:06.787Z,-1.20
2023-03-06T00:15:17.033Z,-1.25
2023-03-06T00:20:27.753Z,-1.28
2023-03-06T00:25:37.323Z,-1.25
2023-03-06T00:30:46.258Z,-1.21
2023-03-06T00:35:53.796Z,-1.17
2023-03-06T00:41:01.437Z,-1.19
2023-03-06T00:46:09.543Z,-1.15
2023-03-06T00:51:20.278Z,-1.16
2023-03-06T00:56:27.832Z,-1.16
2023-03-06T01:01:35.792Z,-1.14
2023-03-06T01:06:43.367Z,-1.14
2023-03-06T01:11:51.155Z,-1.16
2023-03-06T01:16:59.688Z,-1.18
2023-03-06T01:22:07.200Z,-1.21
2023-03-06T01:27:14.862Z,-1.24
2023-03-06T01:32:23.074Z,-1.29
2023-03-06T01:37:30.931Z,-1.30
2023-03-06T01:42:38.781Z,-1.27
2023-03-06T01:47:46.151Z,-1.24
2023-03-06T01:52:57.334Z,-1.25
2023-03-06T01:58:08.998Z,-1.29
2023-03-06T02:03:20.557Z,-1.33
2023-03-06T02:08:28.708Z,-1.36
2023-03-06T02:13:37.238Z,-1.40
2023-03-06T02:18:45.908Z,-1.42
2023-03-06T02:24:08.094Z,-1.38
2023-03-06T02:29:16.386Z,-1.33
2023-03-06T02:35:00.686Z,-1.30
2023-03-06T02:40:15.777Z,-1.29
2023-03-06T02:45:30.315Z,-1.34
2023-03-06T02:50:37.862Z,-1.39
2023-03-06T02:55:45.580Z,-1.45
2023-03-06T03:00:53.828Z,-1.55
2023-03-06T03:06:01.488Z,-1.60
2023-03-06T03:11:09.639Z,-1.61
2023-03-06T03:16:18.501Z,-1.65
2023-03-06T03:21:26.029Z,-1.66
2023-03-06T03:26:33.526Z,-1.66
2023-03-06T03:31:41.501Z,-1.66
2023-03-06T03:36:49.480Z,-1.65
2023-03-06T03:41:56.954Z,-1.60
2023-03-06T03:47:04.241Z,-1.55
2023-03-06T03:52:11.884Z,-1.50
2023-03-06T03:57:19.312Z,-1.47
2023-03-06T04:02:27.140Z,-1.43
2023-03-06T04:07:34.354Z,-1.43
2023-03-06T04:12:41.737Z,-1.41
2023-03-06T04:17:49.411Z,-1.39
2023-03-06T04:22:56.676Z,-1.34
2023-03-06T04:28:02.420Z,-1.27
2023-03-06T04:33:10.147Z,-1.23
2023-03-06T04:38:17.783Z,-1.22
2023-03-06T04:43:25.113Z,-1.21
2023-03-06T04:48:32.602Z,-1.19
2023-03-06T04:53:40.443Z,-1.17
2023-03-06T04:58:48.323Z,-1.13
2023-03-06T05:03:55.946Z,-1.10
2023-03-06T05:09:03.602Z,-1.05
2023-03-06T05:14:11.232Z,-1.00
2023-03-06T05:19:18.539Z,-1.00
2023-03-06T05:24:25.974Z,-0.97
2023-03-06T05:29:33.225Z,-0.96
2023-03-06T05:34:39.130Z,-0.93
2023-03-06T05:39:46.352Z,-0.89
2023-03-06T05:44:54.069Z,-0.84
2023-03-06T05:50:01.448Z,-0.80
2023-03-06T05:55:11.806Z,-0.75
2023-03-06T06:00:21.349Z,-0.66
2023-03-06T06:05:28.696Z,-0.56
2023-03-06T06:10:35.983Z,-0.45
2023-03-06T06:15:43.620Z,-0.36
2023-03-06T06:20:49.125Z,-0.26
2023-03-06T06:28:16.553Z,-0.10
2023-03-06T06:33:24.312Z,-0.03
2023-03-06T06:38:31.828Z,0.05
2023-03-06T06:43:39.261Z,0.11
2023-03-06T06:48:48.887Z,0.18
2023-03-06T06:53:57.224Z,0.26
2023-03-06T06:59:15.969Z,0.38
2023-03-06T07:04:24.631Z,0.53
2023-03-06T07:09:32.217Z,0.81
2023-03-06T07:14:41.622Z,0.97
2023-03-06T07:19:49.132Z,0.99
2023-03-06T07:24:56.479Z,1.02
2023-03-06T07:30:02.516Z,1.09
2023-03-06T07:35:19.793Z,1.08
2023-03-06T07:40:28.633Z,1.21
2023-03-06T07:45:36.235Z,1.36
2023-03-06T07:50:44.666Z,1.52
2023-03-06T07:55:51.843Z,1.53
2023-03-06T08:00:57.442Z,1.49
2023-03-06T08:06:13.814Z,1.46
2023-03-06T08:11:23.429Z,1.44
2023-03-06T08:16:31.917Z,1.52
2023-03-06T08:21:39.534Z,1.74
2023-03-06T08:26:47.427Z,1.86
2023-03-06T08:31:54.853Z,1.99
2023-03-06T08:37:02.481Z,2.09
2023-03-06T08:42:10.998Z,2.16
2023-03-06T08:47:18.370Z,2.28
2023-03-06T08:52:25.732Z,2.39
2023-03-06T08:57:33.421Z,2.47
2023-03-06T09:05:24.010Z,2.67
2023-03-06T09:10:32.241Z,2.81
2023-03-06T09:15:40.460Z,2.95
2023-03-06T09:20:47.861Z,3.05
2023-03-06T09:25:57.165Z,3.08
2023-03-06T09:31:08.600Z,3.14
2023-03-06T09:36:18.410Z,3.10
2023-03-06T09:41:37.985Z,3.08
2023-03-06T09:47:23.306Z,3.15
2023-03-06T09:52:39.082Z,3.25
2023-03-06T09:57:55.023Z,3.40
2023-03-06T10:03:16.721Z,3.48
2023-03-06T10:08:31.599Z,3.60
2023-03-06T10:13:44.891Z,3.73
2023-03-06T10:18:53.304Z,3.82
2023-03-06T10:24:10.858Z,3.90
2023-03-06T10:29:32.436Z,4.01
2023-03-06T10:34:43.060Z,4.11
2023-03-06T10:39:56.341Z,4.12
2023-03-06T10:45:15.013Z,4.15
2023-03-06T10:50:28.248Z,4.18
2023-03-06T10:55:37.905Z,4.19
2023-03-06T11:00:45.125Z,4.25
2023-03-06T11:06:13.323Z,4.32
2023-03-06T11:11:37.194Z,4.34
2023-03-06T11:16:53.687Z,4.38
2023-03-06T11:22:06.895Z,4.40
2023-03-06T11:27:26.278Z,4.42
2023-03-06T11:32:42.344Z,4.45
2023-03-06T11:37:55.205Z,4.45
2023-03-06T11:43:16.211Z,4.50
2023-03-06T11:48:29.119Z,4.53
2023-03-06T11:53:39.852Z,4.54
2023-03-06T11:59:02.578Z,4.65
2023-03-06T12:04:35.596Z,4.71
2023-03-06T12:09:52.744Z,4.75
2023-03-06T12:15:14.826Z,4.78
2023-03-06T12:20:36.054Z,4.74
2023-03-06T12:25:46.199Z,4.79
2023-03-06T12:31:12.672Z,4.82
2023-03-06T12:36:40.536Z,4.78
2023-03-06T12:41:57.786Z,4.78
2023-03-06T12:47:10.366Z,4.79
2023-03-06T12:52:30.185Z,4.77
2023-03-06T12:57:37.928Z,4.76
2023-03-06T13:03:08.004Z,4.76
2023-03-06T13:08:51.215Z,4.80
2023-03-06T13:13:59.523Z,4.81
2023-03-06T13:19:17.697Z,4.81
2023-03-06T13:24:26.685Z,4.78
2023-03-06T13:29:54.531Z,4.78
2023-03-06T13:35:01.949Z,4.81
2023-03-06T13:40:35.334Z,4.87
2023-03-06T13:45:44.995Z,4.92
2023-03-06T13:50:53.007Z,4.94
2023-03-06T13:56:14.339Z,4.93
2023-03-06T14:01:37.239Z,4.89
2023-03-06T14:06:54.404Z,4.47
2023-03-06T14:12:07.607Z,3.80
2023-03-06T14:17:26.567Z,3.40
2023-03-06T14:22:34.748Z,3.16
2023-03-06T14:27:54.889Z,3.05
2023-03-06T14:33:13.834Z,2.95
2023-03-06T14:38:21.132Z,2.88
2023-03-06T14:43:28.496Z,2.84
2023-03-06T14:48:45.046Z,2.89
2023-03-06T14:53:55.598Z,2.98
2023-03-06T14:59:05.572Z,3.06
2023-03-06T15:04:21.791Z,3.12
2023-03-06T15:09:31.453Z,3.16
2023-03-06T15:14:41.460Z,3.18
2023-03-06T15:19:50.839Z,3.19
2023-03-06T15:25:18.670Z,3.18
2023-03-06T15:30:29.767Z,3.17
2023-03-06T15:35:38.347Z,3.12
2023-03-06T15:40:57.720Z,3.10
2023-03-06T15:46:06.979Z,3.07
2023-03-06T15:51:14.796Z,3.01
2023-03-06T15:56:27.911Z,2.98
2023-03-06T16:01:37.108Z,2.95
2023-03-06T16:06:46.249Z,2.93
2023-03-06T16:11:53.384Z,2.91
2023-03-06T16:17:00.972Z,2.89
2023-03-06T16:22:09.238Z,2.87
2023-03-06T16:27:20.704Z,2.85
2023-03-06T16:32:28.852Z,2.83
2023-03-06T16:37:36.328Z,2.81
2023-03-06T16:42:43.695Z,2.79
2023-03-06T16:47:51.613Z,2.77
2023-03-06T16:52:59.833Z,2.76
2023-03-06T16:58:08.899Z,2.76
2023-03-06T17:03:16.977Z,2.75
2023-03-06T17:08:24.210Z,2.76
2023-03-06T17:19:32.391Z,2.77
2023-03-06T17:24:37.104Z,2.67
2023-03-06T17:29:41.064Z,2.54
2023-03-06T17:34:45.883Z,2.43
2023-03-06T17:39:49.892Z,2.34
2023-03-06T17:44:53.983Z,2.26
2023-03-06T17:49:58.057Z,2.22
2023-03-06T17:55:02.340Z,2.20
2023-03-06T18:00:13.180Z,2.17
2023-03-06T18:05:20.235Z,2.11
2023-03-06T18:10:24.542Z,2.05
2023-03-06T18:15:28.780Z,1.97
2023-03-06T18:20:33.297Z,1.88
2023-03-06T18:25:37.833Z,1.81
2023-03-06T18:30:42.277Z,1.72
2023-03-06T18:35:47.144Z,1.65
2023-03-06T18:40:51.698Z,1.58
2023-03-06T18:45:57.117Z,1.52
2023-03-06T18:51:06.478Z,1.43
2023-03-06T18:56:16.246Z,1.36
2023-03-06T19:01:21.819Z,1.31
2023-03-06T19:06:27.832Z,1.29
2023-03-06T19:11:33.979Z,1.25
2023-03-06T19:16:38.404Z,1.18
2023-03-06T19:21:42.538Z,1.14
2023-03-06T19:26:46.655Z,1.11
2023-03-06T19:31:51.775Z,1.10
2023-03-06T19:36:55.827Z,1.09
2023-03-06T19:41:59.700Z,1.09
2023-03-06T19:47:03.863Z,1.08
2023-03-06T19:52:08.345Z,1.06
2023-03-06T19:57:13.442Z,1.05
2023-03-06T20:02:18.971Z,1.05
2023-03-06T20:07:22.998Z,1.08
2023-03-06T20:12:27.274Z,1.06
2023-03-06T20:17:32.107Z,1.02
2023-03-06T20:22:36.224Z,0.96
2023-03-06T20:27:40.503Z,0.88
2023-03-06T20:32:45.154Z,0.82
2023-03-06T20:37:49.271Z,0.79
2023-03-06T20:42:53.415Z,0.77
2023-03-06T20:47:57.579Z,0.80
2023-03-06T20:53:01.641Z,0.85
2023-03-06T20:58:07.178Z,0.88
2023-03-06T21:03:11.450Z,0.87
2023-03-06T21:08:16.268Z,0.87
2023-03-06T21:13:20.973Z,0.84
2023-03-06T21:18:25.883Z,0.85
2023-03-06T21:23:30.078Z,0.84
2023-03-06T21:28:34.414Z,0.84
2023-03-06T21:33:38.537Z,0.83
2023-03-06T21:38:42.469Z,0.81
2023-03-06T21:43:47.848Z,0.78
2023-03-06T21:48:52.484Z,0.77
2023-03-06T21:53:57.356Z,0.73
2023-03-06T21:59:01.712Z,0.67
2023-03-06T22:04:06.202Z,0.63
2023-03-06T22:09:13.155Z,0.59
2023-03-06T22:14:16.801Z,0.54
2023-03-06T22:19:21.065Z,0.46
2023-03-06T22:24:25.482Z,0.34
2023-03-06T22:29:30.086Z,0.27
2023-03-06T22:34:34.876Z,0.25
2023-03-06T22:39:39.764Z,0.23
2023-03-06T22:44:44.231Z,0.15
2023-03-06T22:49:48.141Z,0.01
2023-03-06T22:54:52.198Z,-0.06
2023-03-06T22:59:56.287Z,-0.09
2023-03-06T23:05:00.212Z,-0.07
2023-03-06T23:10:06.355Z,-0.10
2023-03-06T23:15:11.477Z,-0.15
2023-03-06T23:20:15.794Z,-0.12
2023-03-06T23:29:11.432Z,0.03
2023-03-06T23:34:19.220Z,0.04
2023-03-06T23:39:27.212Z,0.02
2023-03-06T23:44:35.870Z,-0.01
2023-03-06T23:49:43.186Z,-0.07
2023-03-06T23:54:52.673Z,-0.22
